Albany, New Hampshire
Current Conditions -  °F | °C
As of 9:25 PM on Tuesday 21 Oct 2014 (Local Time) from KIZG Reporting Station
Light Rain Light Rain  
Wind Chill: 44°   Ceiling: 1000
Heat Index: 46°   Visibility: 6mi
Dew Point: 44°   Wind: 5mph
Humidity: 93%   Direction: NA
Pressure: 30.09"   Gusts: NA
Location:  43.9735°N, 71.2576°W
Report Text: KIZG 220125Z AUTO VRB04KT 6SM -RA BR OVC010 08/07 A3009 RMK AO2 CIG 006V013 P0004 T00780067
Loading
Personal Weather Stations






























Interactive Weather Map
Tropical Storm Tracking
New forecast layout! Learn more

10-Day Weather Forecast

Advertisements
Track Severe Weather on mobile